Stouffville, Canada
Current Conditions -  °F | °C
As of 12:00 AM on Saturday 20 Dec 2014 (Local Time) from CYKZ Reporting Station
Few Clouds Few Clouds  
Wind Chill: 17°   Ceiling: Unl
Heat Index: 23°   Visibility: 15mi
Dew Point: 18°   Wind: 5mph
Humidity: 80%   Direction: 360°N
Pressure: 30.25"   Gusts: NA
Location:  43.97°N, 79.25°W
Report Text: CYKZ 200500Z 36004KT 15SM FEW010 FEW080 M05/M08 A3025 RMK SC1AC1 TR SC TR AC SLP256
Loading
Personal Weather Stations






























Interactive Weather Map New forecast layout! Learn more

10-Day Weather Forecast

Advertisements
Track Severe Weather on mobile